createdAt,value
2023-02-02T00:01:31.923Z,4.80
2023-02-02T00:04:23.449Z,4.90
2023-02-02T00:07:11.669Z,4.90
2023-02-02T00:10:01.848Z,4.90
2023-02-02T00:12:50.064Z,4.80
2023-02-02T00:15:38.417Z,4.90
2023-02-02T00:18:26.652Z,4.80
2023-02-02T00:21:16.206Z,4.80
2023-02-02T00:24:04.695Z,4.80
2023-02-02T00:26:55.082Z,4.80
2023-02-02T00:29:43.282Z,4.80
2023-02-02T00:32:31.492Z,4.70
2023-02-02T00:35:19.840Z,4.70
2023-02-02T00:38:09.407Z,4.70
2023-02-02T00:40:57.667Z,4.70
2023-02-02T00:43:46.741Z,4.70
2023-02-02T00:46:34.027Z,4.70
2023-02-02T00:49:22.598Z,4.70
2023-02-02T00:52:11.251Z,4.70
2023-02-02T00:55:00.816Z,4.60
2023-02-02T00:57:49.287Z,4.70
2023-02-02T01:00:37.976Z,4.60
2023-02-02T01:03:26.281Z,4.70
2023-02-02T01:06:14.773Z,4.60
2023-02-02T01:09:03.692Z,4.60
2023-02-02T01:11:53.260Z,4.60
2023-02-02T01:14:41.501Z,4.60
2023-02-02T01:17:30.313Z,4.70
2023-02-02T01:20:21.218Z,4.70
2023-02-02T01:23:09.409Z,4.70
2023-02-02T01:25:58.827Z,4.80
2023-02-02T01:28:48.515Z,4.80
2023-02-02T01:31:36.768Z,4.80
2023-02-02T01:34:25.118Z,4.80
2023-02-02T01:37:13.363Z,4.80
2023-02-02T01:40:01.561Z,4.90
2023-02-02T01:42:49.777Z,5.00
2023-02-02T01:45:39.386Z,5.00
2023-02-02T01:48:33.877Z,5.00
2023-02-02T01:51:27.262Z,5.00
2023-02-02T01:54:26.920Z,5.00
2023-02-02T01:57:18.272Z,5.00
2023-02-02T02:00:10.126Z,5.10
2023-02-02T02:03:03.389Z,5.10
2023-02-02T02:05:55.759Z,5.10
2023-02-02T02:08:52.213Z,5.10
2023-02-02T02:11:40.433Z,5.10
2023-02-02T02:14:46.828Z,5.10
2023-02-02T02:17:46.853Z,5.10
2023-02-02T02:21:36.703Z,5.10
2023-02-02T02:25:28.940Z,5.10
2023-02-02T02:28:59.758Z,5.10
2023-02-02T02:32:05.838Z,5.10
2023-02-02T02:34:57.185Z,5.10
2023-02-02T02:37:49.413Z,5.10
2023-02-02T02:40:43.136Z,5.10
2023-02-02T02:43:35.855Z,5.10
2023-02-02T02:46:25.105Z,5.10
2023-02-02T02:49:15.188Z,5.20
2023-02-02T02:52:03.567Z,5.20
2023-02-02T02:54:54.660Z,5.20
2023-02-02T02:58:05.870Z,5.20
2023-02-02T03:01:04.599Z,5.20
2023-02-02T03:04:07.416Z,5.10
2023-02-02T03:07:05.592Z,5.20
2023-02-02T03:09:56.190Z,5.10
2023-02-02T03:12:46.243Z,5.20
2023-02-02T03:15:34.554Z,5.20
2023-02-02T03:18:25.485Z,5.20
2023-02-02T03:21:13.717Z,5.20
2023-02-02T03:24:03.657Z,5.30
2023-02-02T03:26:52.425Z,5.30
2023-02-02T03:29:40.673Z,5.30
2023-02-02T03:32:28.946Z,5.30
2023-02-02T03:35:17.284Z,5.30
2023-02-02T03:38:05.540Z,5.30
2023-02-02T03:40:55.098Z,5.20
2023-02-02T03:43:43.343Z,5.20
2023-02-02T03:46:31.603Z,5.20
2023-02-02T03:49:19.837Z,5.30
2023-02-02T03:52:08.105Z,5.30
2023-02-02T03:54:56.312Z,5.30
2023-02-02T03:57:45.880Z,5.30
2023-02-02T04:00:34.135Z,5.30
2023-02-02T04:03:22.491Z,5.30
2023-02-02T04:06:10.733Z,5.20
2023-02-02T04:08:58.979Z,5.10
2023-02-02T04:11:47.236Z,5.10
2023-02-02T04:14:36.912Z,5.10
2023-02-02T04:17:25.366Z,5.00
2023-02-02T04:20:13.763Z,4.90
2023-02-02T04:23:01.986Z,4.90
2023-02-02T04:25:50.851Z,4.90
2023-02-02T04:28:39.057Z,4.90
2023-02-02T04:31:29.930Z,4.90
2023-02-02T04:34:18.418Z,4.90
2023-02-02T04:37:06.638Z,4.90
2023-02-02T04:39:55.402Z,4.90
2023-02-02T04:42:45.349Z,4.90
2023-02-02T04:45:33.619Z,4.90
2023-02-02T04:48:23.267Z,5.00
2023-02-02T04:51:13.748Z,5.00
2023-02-02T04:54:01.997Z,5.00
2023-02-02T04:56:50.221Z,5.00
2023-02-02T04:59:39.891Z,5.10
2023-02-02T05:02:30.149Z,5.10
2023-02-02T05:05:20.425Z,5.10
2023-02-02T05:08:09.771Z,5.10
2023-02-02T05:10:58.079Z,5.10
2023-02-02T05:13:48.140Z,5.10
2023-02-02T05:16:36.508Z,5.20
2023-02-02T05:19:25.093Z,5.10
2023-02-02T05:22:14.696Z,5.10
2023-02-02T05:25:02.912Z,5.10
2023-02-02T05:27:51.147Z,5.10
2023-02-02T05:30:41.352Z,5.10
2023-02-02T05:33:29.540Z,5.20
2023-02-02T05:36:17.829Z,5.20
2023-02-02T05:39:07.359Z,5.10
2023-02-02T05:41:55.583Z,5.10
2023-02-02T05:44:43.796Z,5.10
2023-02-02T05:47:31.984Z,5.00
2023-02-02T05:50:20.348Z,4.90
2023-02-02T05:53:08.577Z,4.90
2023-02-02T05:55:58.637Z,4.90
2023-02-02T05:58:48.078Z,4.80
2023-02-02T06:01:36.320Z,4.80
2023-02-02T06:04:24.549Z,4.80
2023-02-02T06:07:13.197Z,4.70
2023-02-02T06:10:01.502Z,4.70
2023-02-02T06:12:51.155Z,4.70
2023-02-02T06:15:39.520Z,4.70
2023-02-02T06:18:27.985Z,4.70
2023-02-02T06:21:16.212Z,4.70
2023-02-02T06:24:04.985Z,4.70
2023-02-02T06:26:53.251Z,4.70
2023-02-02T06:29:42.840Z,4.70
2023-02-02T06:32:31.319Z,4.70
2023-02-02T06:35:19.657Z,4.70
2023-02-02T06:38:07.862Z,4.70
2023-02-02T06:40:56.184Z,4.70
2023-02-02T06:43:44.390Z,4.70
2023-02-02T06:46:34.048Z,4.70
2023-02-02T06:49:22.260Z,4.70
2023-02-02T06:52:10.514Z,4.80
2023-02-02T06:54:58.752Z,4.80
2023-02-02T06:57:47.482Z,4.80
2023-02-02T07:00:38.301Z,4.80
2023-02-02T07:03:27.903Z,4.80
2023-02-02T07:06:18.864Z,4.80
2023-02-02T07:09:07.176Z,4.80
2023-02-02T07:11:55.365Z,4.80
2023-02-02T07:14:43.610Z,4.70
2023-02-02T07:17:31.840Z,4.70
2023-02-02T07:20:21.586Z,4.70
2023-02-02T07:23:09.852Z,4.70
2023-02-02T07:26:05.148Z,4.80
2023-02-02T07:28:53.374Z,4.80
2023-02-02T07:31:42.264Z,4.80
2023-02-02T07:34:30.552Z,4.90
2023-02-02T07:37:20.113Z,4.90
2023-02-02T07:40:09.775Z,4.90
2023-02-02T07:43:00.613Z,4.90
2023-02-02T07:45:48.887Z,4.90
2023-02-02T07:48:37.827Z,4.90
2023-02-02T07:51:27.071Z,4.90
2023-02-02T07:54:16.660Z,5.00
2023-02-02T07:57:04.979Z,5.00
2023-02-02T07:59:54.643Z,5.00
2023-02-02T08:02:42.933Z,5.00
2023-02-02T08:05:32.135Z,5.10
2023-02-02T08:08:20.380Z,5.10
2023-02-02T08:11:12.699Z,5.20
2023-02-02T08:14:02.480Z,5.30
2023-02-02T08:16:50.746Z,5.30
2023-02-02T08:19:39.007Z,5.40
2023-02-02T08:22:27.337Z,5.40
2023-02-02T08:25:15.676Z,5.40
2023-02-02T08:28:06.124Z,5.50
2023-02-02T08:30:54.403Z,5.60
2023-02-02T08:33:42.801Z,5.60
2023-02-02T08:36:33.000Z,5.60
2023-02-02T08:39:21.250Z,5.70
2023-02-02T08:42:09.520Z,5.70
2023-02-02T08:45:59.546Z,5.70
2023-02-02T08:48:11.977Z,5.80
2023-02-02T08:51:01.905Z,5.80
2023-02-02T08:53:50.223Z,5.90
2023-02-02T08:56:38.470Z,5.90
2023-02-02T08:59:26.795Z,5.90
2023-02-02T09:02:16.848Z,5.90
2023-02-02T09:05:05.494Z,6.00
2023-02-02T09:07:53.741Z,5.90
2023-02-02T09:10:42.000Z,6.00
2023-02-02T09:13:30.210Z,6.00
2023-02-02T09:16:19.507Z,6.00
2023-02-02T09:19:09.485Z,6.00
2023-02-02T09:21:57.701Z,6.00
2023-02-02T09:24:45.913Z,5.90
2023-02-02T09:27:38.497Z,6.00
2023-02-02T09:30:26.753Z,6.00
2023-02-02T09:33:14.980Z,6.10
2023-02-02T09:36:10.001Z,6.10
2023-02-02T09:38:58.371Z,6.10
2023-02-02T09:42:07.146Z,6.20
2023-02-02T09:45:13.411Z,6.30
2023-02-02T09:48:14.632Z,6.30
2023-02-02T09:51:04.938Z,6.20
2023-02-02T09:53:58.010Z,6.30
2023-02-02T09:56:54.593Z,6.50
2023-02-02T09:59:44.367Z,6.60
2023-02-02T10:02:39.328Z,6.60
2023-02-02T10:05:33.325Z,6.60
2023-02-02T10:08:35.044Z,6.60
2023-02-02T10:11:33.820Z,6.80
2023-02-02T10:14:28.599Z,6.90
2023-02-02T10:17:33.245Z,6.80
2023-02-02T10:20:33.704Z,6.90
2023-02-02T10:23:27.982Z,6.80
2023-02-02T10:26:20.473Z,6.90
2023-02-02T10:29:18.770Z,6.80
2023-02-02T10:32:22.464Z,6.80
2023-02-02T10:35:28.636Z,6.70
2023-02-02T10:38:24.754Z,6.70
2023-02-02T10:41:22.446Z,6.80
2023-02-02T10:44:31.458Z,6.80
2023-02-02T10:47:26.568Z,6.90
2023-02-02T10:50:19.990Z,7.00
2023-02-02T10:53:14.166Z,7.00
2023-02-02T10:56:07.012Z,6.90
2023-02-02T10:59:02.584Z,6.80
2023-02-02T11:01:52.215Z,6.90
2023-02-02T11:04:57.971Z,7.10
2023-02-02T11:07:46.369Z,7.10
2023-02-02T11:10:34.626Z,7.10
2023-02-02T11:13:31.488Z,7.10
2023-02-02T11:16:41.585Z,7.20
2023-02-02T11:19:34.467Z,7.30
2023-02-02T11:22:32.417Z,7.40
2023-02-02T11:25:28.533Z,7.50
2023-02-02T11:28:22.238Z,7.60
2023-02-02T11:31:12.871Z,7.70
2023-02-02T11:34:16.064Z,7.90
2023-02-02T11:37:15.946Z,8.00
2023-02-02T11:40:22.682Z,8.00
2023-02-02T11:43:19.794Z,8.10
2023-02-02T11:46:18.173Z,8.20
2023-02-02T11:49:08.594Z,8.30
2023-02-02T11:51:59.420Z,8.30
2023-02-02T11:54:51.377Z,8.50
2023-02-02T11:57:39.613Z,8.70
2023-02-02T12:00:29.841Z,9.00
2023-02-02T12:03:31.009Z,9.10
2023-02-02T12:06:20.567Z,8.90
2023-02-02T12:09:14.179Z,8.80
2023-02-02T12:12:10.901Z,8.60
2023-02-02T12:15:05.488Z,8.60
2023-02-02T12:18:02.691Z,8.60
2023-02-02T12:20:59.680Z,8.50
2023-02-02T12:24:16.205Z,8.30
2023-02-02T12:27:18.480Z,8.20
2023-02-02T12:30:23.891Z,8.20
2023-02-02T12:33:23.631Z,8.30
2023-02-02T12:36:24.677Z,8.20
2023-02-02T12:39:30.170Z,8.10
2023-02-02T12:42:33.951Z,8.00
2023-02-02T12:45:39.320Z,8.00
2023-02-02T12:48:41.445Z,7.90
2023-02-02T12:51:47.755Z,8.00
2023-02-02T12:54:53.121Z,7.90
2023-02-02T12:58:07.543Z,7.90
2023-02-02T13:01:27.884Z,8.00
2023-02-02T13:04:40.619Z,8.10
2023-02-02T13:07:40.679Z,8.40
2023-02-02T13:10:33.086Z,8.60
2023-02-02T13:13:26.620Z,8.50
2023-02-02T13:16:15.381Z,8.40
2023-02-02T13:19:07.919Z,8.20
2023-02-02T13:21:59.117Z,8.10
2023-02-02T13:24:50.690Z,8.00
2023-02-02T13:27:41.244Z,8.30
2023-02-02T13:30:34.312Z,9.30
2023-02-02T13:33:26.092Z,10.00
2023-02-02T13:36:25.676Z,10.20
2023-02-02T13:39:18.750Z,10.40
2023-02-02T13:42:16.901Z,10.40
2023-02-02T13:45:16.640Z,10.60
2023-02-02T13:48:19.131Z,10.50
2023-02-02T13:51:39.563Z,10.70
2023-02-02T13:55:10.356Z,11.10
2023-02-02T13:58:28.150Z,11.00
2023-02-02T14:01:16.948Z,10.90
2023-02-02T14:04:06.924Z,10.80
2023-02-02T14:06:58.083Z,10.70
2023-02-02T14:09:49.965Z,10.50
2023-02-02T14:12:38.164Z,10.40
2023-02-02T14:15:40.230Z,10.40
2023-02-02T14:18:54.376Z,10.60
2023-02-02T14:22:05.520Z,10.70
2023-02-02T14:24:54.856Z,10.70
2023-02-02T14:27:58.231Z,10.10
2023-02-02T14:31:17.897Z,9.00
2023-02-02T14:34:29.298Z,8.50
2023-02-02T14:37:44.928Z,8.40
2023-02-02T14:40:45.929Z,8.60
2023-02-02T14:43:49.818Z,8.70
2023-02-02T14:46:40.052Z,8.70
2023-02-02T14:49:35.482Z,8.60
2023-02-02T14:52:24.448Z,8.60
2023-02-02T14:55:22.403Z,8.70
2023-02-02T14:58:10.917Z,8.70
2023-02-02T15:01:09.889Z,8.70
2023-02-02T15:04:19.470Z,8.60
2023-02-02T15:07:53.704Z,8.50
2023-02-02T15:11:30.034Z,8.40
2023-02-02T15:14:20.885Z,8.30
2023-02-02T15:17:20.795Z,8.30
2023-02-02T15:20:20.806Z,8.30
2023-02-02T15:23:24.259Z,8.30
2023-02-02T15:26:18.270Z,8.20
2023-02-02T15:29:14.724Z,8.10
2023-02-02T15:32:04.545Z,8.00
2023-02-02T15:34:55.451Z,7.90
2023-02-02T15:37:47.222Z,7.80
2023-02-02T15:40:38.499Z,7.70
2023-02-02T15:43:28.843Z,7.60
2023-02-02T15:46:24.454Z,7.60
2023-02-02T15:49:34.386Z,7.50
2023-02-02T15:52:27.160Z,7.40
2023-02-02T15:55:22.513Z,7.40
2023-02-02T15:58:42.149Z,7.40
2023-02-02T16:01:34.081Z,7.20
2023-02-02T16:04:29.037Z,7.20
2023-02-02T16:07:21.029Z,7.10
2023-02-02T16:10:19.413Z,7.10
2023-02-02T16:13:07.699Z,7.10
2023-02-02T16:15:59.174Z,7.10
2023-02-02T16:18:47.462Z,7.00
2023-02-02T16:21:38.724Z,7.00
2023-02-02T16:24:30.365Z,6.90
2023-02-02T16:27:22.273Z,6.90
2023-02-02T16:30:19.151Z,6.70
2023-02-02T16:33:35.610Z,6.70
2023-02-02T16:36:26.797Z,6.60
2023-02-02T16:39:24.339Z,6.50
2023-02-02T16:42:22.704Z,6.50
2023-02-02T16:45:34.888Z,6.50
2023-02-02T16:48:33.943Z,6.40
2023-02-02T16:51:28.744Z,6.30
2023-02-02T16:54:21.329Z,6.30
2023-02-02T16:57:18.932Z,6.20
2023-02-02T17:00:11.390Z,6.20
2023-02-02T17:03:02.390Z,6.20
2023-02-02T17:05:54.196Z,6.20
2023-02-02T17:08:42.750Z,6.20
2023-02-02T17:11:31.095Z,6.10
2023-02-02T17:14:21.330Z,6.10
2023-02-02T17:17:10.797Z,6.00
2023-02-02T17:19:59.029Z,6.00
2023-02-02T17:22:51.617Z,5.90
2023-02-02T17:25:43.741Z,5.90
2023-02-02T17:28:32.243Z,5.80
2023-02-02T17:31:20.553Z,5.80
2023-02-02T17:34:12.986Z,5.80
2023-02-02T17:37:01.210Z,5.80
2023-02-02T17:39:51.039Z,5.80
2023-02-02T17:42:39.293Z,5.70
2023-02-02T17:45:33.947Z,5.70
2023-02-02T17:48:22.463Z,5.60
2023-02-02T17:51:16.424Z,5.60
2023-02-02T17:54:06.382Z,5.50
2023-02-02T17:56:56.098Z,5.40
2023-02-02T17:59:44.336Z,5.40
2023-02-02T18:02:32.760Z,5.40
2023-02-02T18:05:21.406Z,5.40
2023-02-02T18:08:11.251Z,5.30
2023-02-02T18:10:59.776Z,5.20
2023-02-02T18:13:49.479Z,5.20
2023-02-02T18:16:37.725Z,5.10
2023-02-02T18:19:25.956Z,5.10
2023-02-02T18:22:14.355Z,5.10
2023-02-02T18:25:04.247Z,5.20
2023-02-02T18:27:54.842Z,5.20
2023-02-02T18:30:47.644Z,5.30
2023-02-02T18:33:37.075Z,5.30
2023-02-02T18:36:25.746Z,5.30
2023-02-02T18:39:14.124Z,5.30
2023-02-02T18:42:02.593Z,5.30
2023-02-02T18:44:50.791Z,5.30
2023-02-02T18:47:41.512Z,5.30
2023-02-02T18:50:29.865Z,5.30
2023-02-02T18:53:18.159Z,5.40
2023-02-02T18:56:07.575Z,5.40
2023-02-02T18:58:56.214Z,5.30
2023-02-02T19:01:44.483Z,5.30
2023-02-02T19:04:34.673Z,5.40
2023-02-02T19:07:40.239Z,5.40
2023-02-02T19:10:29.001Z,5.30
2023-02-02T19:13:19.379Z,5.30
2023-02-02T19:16:15.679Z,5.30
2023-02-02T19:19:09.807Z,5.30
2023-02-02T19:22:01.743Z,5.30
2023-02-02T19:24:50.816Z,5.30
2023-02-02T19:27:39.092Z,5.30
2023-02-02T19:30:27.683Z,5.20
2023-02-02T19:33:17.588Z,5.20
2023-02-02T19:36:07.046Z,5.20
2023-02-02T19:39:03.269Z,5.20
2023-02-02T19:41:53.704Z,5.20
2023-02-02T19:44:42.126Z,5.20
2023-02-02T19:47:33.549Z,5.30
2023-02-02T19:50:24.058Z,5.30
2023-02-02T19:53:19.556Z,5.30
2023-02-02T19:56:24.340Z,5.30
2023-02-02T19:59:17.600Z,5.30
2023-02-02T20:02:42.425Z,5.30
2023-02-02T20:05:35.157Z,5.30
2023-02-02T20:08:26.402Z,5.30
2023-02-02T20:11:31.911Z,5.30
2023-02-02T20:14:30.098Z,5.20
2023-02-02T20:17:27.171Z,5.30
2023-02-02T20:20:26.080Z,5.30
2023-02-02T20:23:41.719Z,5.30
2023-02-02T20:26:35.870Z,5.30
2023-02-02T20:29:27.286Z,5.20
2023-02-02T20:32:21.770Z,5.20
2023-02-02T20:35:23.938Z,5.20
2023-02-02T20:38:21.556Z,5.20
2023-02-02T20:41:09.815Z,5.30
2023-02-02T20:43:59.393Z,5.30
2023-02-02T20:46:47.906Z,5.30
2023-02-02T20:49:37.055Z,5.30
2023-02-02T20:52:26.354Z,5.30
2023-02-02T20:55:14.703Z,5.30
2023-02-02T20:58:03.433Z,5.30
2023-02-02T21:00:53.047Z,5.30
2023-02-02T21:03:41.545Z,5.30
2023-02-02T21:06:29.750Z,5.30
2023-02-02T21:09:19.232Z,5.30
2023-02-02T21:12:07.508Z,5.30
2023-02-02T21:14:55.789Z,5.30
2023-02-02T21:17:45.329Z,5.30
2023-02-02T21:20:33.529Z,5.30
2023-02-02T21:23:21.814Z,5.20
2023-02-02T21:26:10.403Z,5.10
2023-02-02T21:28:59.306Z,5.00
2023-02-02T21:31:47.674Z,4.90
2023-02-02T21:34:37.999Z,4.80
2023-02-02T21:37:26.438Z,4.80
2023-02-02T21:40:22.526Z,4.70
2023-02-02T21:43:16.476Z,4.70
2023-02-02T21:46:04.917Z,4.70
2023-02-02T21:48:53.163Z,4.70
2023-02-02T21:51:43.588Z,4.70
2023-02-02T21:54:37.907Z,4.70
2023-02-02T21:57:36.043Z,4.70
2023-02-02T22:00:28.857Z,4.60
2023-02-02T22:03:38.508Z,4.60
2023-02-02T22:06:29.323Z,4.60
2023-02-02T22:09:23.065Z,4.60
2023-02-02T22:12:18.123Z,4.60
2023-02-02T22:15:19.392Z,4.60
2023-02-02T22:18:13.224Z,4.60
2023-02-02T22:21:01.457Z,4.70
2023-02-02T22:23:49.672Z,4.70
2023-02-02T22:26:39.230Z,4.70
2023-02-02T22:29:30.459Z,4.60
2023-02-02T22:32:18.520Z,4.60
2023-02-02T22:35:07.164Z,4.60
2023-02-02T22:37:55.408Z,4.50
2023-02-02T22:40:43.620Z,4.50
2023-02-02T22:43:33.203Z,4.40
2023-02-02T22:46:21.477Z,4.40
2023-02-02T22:49:09.758Z,4.40
2023-02-02T22:51:58.000Z,4.30
2023-02-02T22:54:46.751Z,4.30
2023-02-02T22:57:34.976Z,4.20
2023-02-02T23:00:27.161Z,4.20
2023-02-02T23:03:15.562Z,4.20
2023-02-02T23:06:03.829Z,4.20
2023-02-02T23:08:51.988Z,4.10
2023-02-02T23:11:40.218Z,4.20
2023-02-02T23:14:28.415Z,4.10
2023-02-02T23:17:18.033Z,4.10
2023-02-02T23:20:08.914Z,4.10
2023-02-02T23:22:57.211Z,4.00
2023-02-02T23:25:45.459Z,4.00
2023-02-02T23:28:33.622Z,4.00
2023-02-02T23:31:21.916Z,3.90
2023-02-02T23:34:11.474Z,3.90
2023-02-02T23:36:59.759Z,3.90
2023-02-02T23:39:47.991Z,4.00
2023-02-02T23:42:36.350Z,4.00
2023-02-02T23:45:24.637Z,4.00
2023-02-02T23:48:13.447Z,3.90
2023-02-02T23:51:03.184Z,3.90
2023-02-02T23:53:51.475Z,3.90
2023-02-02T23:56:40.182Z,3.90
2023-02-02T23:59:28.478Z,3.80
